Terminal Aerodrome Forecast
Issued by NWS Albuquerque, NM

Home | Current Version | Previous Version | Text Only | Print | Product List | Glossary On
Versions: 1 2 3 4 5 6 7 8 9 10 11 12 13 14 15 16 17 18 19 20 21
000
FTUS45 KABQ 281100 RRA
TAFABQ
TAF
KABQ 281142Z 2812/0112 36010KT 2SM -SN BR SCT009 OVC015
      TEMPO 2812/2816 3/4SM -SN BR OVC009
     FM281700 15010KT P6SM VCSH BKN025 OVC050
     FM282000 20010G18KT P6SM SCT030 OVC060
     FM010100 17011KT P6SM VCSH BKN030 BKN050=

USA.gov is the U.S. government's official web portal to all federal, state and local government web resources and services.